createdAt,value
2022-11-27T00:00:45.358Z,26.85
2022-11-27T00:01:48.217Z,27.80
2022-11-27T00:02:51.245Z,27.55
2022-11-27T00:03:55.753Z,26.83
2022-11-27T00:04:58.543Z,25.75
2022-11-27T00:06:01.121Z,25.60
2022-11-27T00:07:04.006Z,26.98
2022-11-27T00:08:06.699Z,27.17
2022-11-27T00:09:12.813Z,25.13
2022-11-27T00:10:15.601Z,25.30
2022-11-27T00:11:21.789Z,24.50
2022-11-27T00:12:24.435Z,26.70
2022-11-27T00:13:27.170Z,25.52
2022-11-27T00:14:30.282Z,26.92
2022-11-27T00:15:33.153Z,25.92
2022-11-27T00:16:35.849Z,26.63
2022-11-27T00:17:38.549Z,27.38
2022-11-27T00:18:41.450Z,25.35
2022-11-27T00:19:44.205Z,25.55
2022-11-27T00:20:46.867Z,25.23
2022-11-27T00:21:49.676Z,24.58
2022-11-27T00:22:52.421Z,24.83
2022-11-27T00:23:56.683Z,23.13
2022-11-27T00:24:59.465Z,23.20
2022-11-27T00:26:02.445Z,23.65
2022-11-27T00:27:05.227Z,23.15
2022-11-27T00:28:08.011Z,23.08
2022-11-27T00:29:10.835Z,22.90
2022-11-27T00:30:13.980Z,22.27
2022-11-27T00:31:29.513Z,23.80
2022-11-27T00:32:32.359Z,25.30
2022-11-27T00:33:35.073Z,28.40
2022-11-27T00:34:38.071Z,26.13
2022-11-27T00:35:41.325Z,25.30
2022-11-27T00:36:48.027Z,27.45
2022-11-27T00:37:51.232Z,25.05
2022-11-27T00:38:54.596Z,26.80
2022-11-27T00:39:57.244Z,27.10
2022-11-27T00:41:08.952Z,25.83
2022-11-27T00:42:11.706Z,27.60
2022-11-27T00:43:14.481Z,26.70
2022-11-27T00:44:17.279Z,27.73
2022-11-27T00:45:20.278Z,26.95
2022-11-27T00:46:29.841Z,28.15
2022-11-27T00:47:32.711Z,27.25
2022-11-27T00:48:35.646Z,27.65
2022-11-27T00:49:38.515Z,25.50
2022-11-27T00:50:41.226Z,26.58
2022-11-27T00:51:43.953Z,25.10
2022-11-27T00:52:46.799Z,25.15
2022-11-27T00:53:49.658Z,26.80
2022-11-27T00:54:52.257Z,26.90
2022-11-27T00:55:56.496Z,24.40
2022-11-27T00:56:59.193Z,25.08
2022-11-27T00:58:01.841Z,25.52
2022-11-27T00:59:06.117Z,25.77
2022-11-27T01:00:09.593Z,25.77
2022-11-27T01:01:24.423Z,25.80
2022-11-27T01:02:27.170Z,26.35
2022-11-27T01:03:31.193Z,24.20
2022-11-27T01:04:34.017Z,24.33
2022-11-27T01:05:37.375Z,23.75
2022-11-27T01:06:40.333Z,25.65
2022-11-27T01:07:43.317Z,24.20
2022-11-27T01:08:46.790Z,23.27
2022-11-27T01:09:49.674Z,23.23
2022-11-27T01:10:57.288Z,23.75
2022-11-27T01:12:00.164Z,23.45
2022-11-27T01:13:02.936Z,25.30
2022-11-27T01:14:10.365Z,21.48
2022-11-27T01:15:13.074Z,22.90
2022-11-27T01:16:18.837Z,22.60
2022-11-27T01:17:21.645Z,24.88
2022-11-27T01:18:24.267Z,20.90
2022-11-27T01:19:26.939Z,23.77
2022-11-27T01:20:29.674Z,21.80
2022-11-27T01:21:34.841Z,23.33
2022-11-27T01:22:37.522Z,22.48
2022-11-27T01:23:40.790Z,21.27
2022-11-27T01:24:43.959Z,22.92
2022-11-27T01:25:46.907Z,20.95
2022-11-27T01:26:49.978Z,22.98
2022-11-27T01:27:52.818Z,22.25
2022-11-27T01:28:56.969Z,22.58
2022-11-27T01:30:00.360Z,21.73
2022-11-27T01:31:07.756Z,21.90
2022-11-27T01:32:10.542Z,22.95
2022-11-27T01:33:13.184Z,24.08
2022-11-27T01:34:17.819Z,22.10
2022-11-27T01:35:20.475Z,21.15
2022-11-27T01:36:23.640Z,21.55
2022-11-27T01:37:26.356Z,20.50
2022-11-27T01:38:30.065Z,23.02
2022-11-27T01:39:32.952Z,21.23
2022-11-27T01:40:35.808Z,22.48
2022-11-27T01:41:41.743Z,21.98
2022-11-27T01:42:44.393Z,21.33
2022-11-27T01:43:49.806Z,22.85
2022-11-27T01:44:55.019Z,21.30
2022-11-27T01:45:57.717Z,20.88
2022-11-27T01:47:07.688Z,21.20
2022-11-27T01:48:11.917Z,21.00
2022-11-27T01:49:35.029Z,21.75
2022-11-27T01:50:39.166Z,22.65
2022-11-27T01:51:45.570Z,21.05
2022-11-27T01:52:51.999Z,21.52
2022-11-27T01:53:55.554Z,21.52
2022-11-27T01:55:23.374Z,20.20
2022-11-27T01:56:27.512Z,20.05
2022-11-27T01:57:38.911Z,21.13
2022-11-27T01:58:41.946Z,20.08
2022-11-27T01:59:45.643Z,20.90
2022-11-27T02:00:48.375Z,21.73
2022-11-27T02:01:51.254Z,20.27
2022-11-27T02:02:54.140Z,22.20
2022-11-27T02:03:59.905Z,21.67
2022-11-27T02:05:02.883Z,21.27
2022-11-27T02:06:05.985Z,22.55
2022-11-27T02:07:08.889Z,20.20
2022-11-27T02:08:14.122Z,21.17
2022-11-27T02:09:17.053Z,21.20
2022-11-27T02:10:20.093Z,23.17
2022-11-27T02:11:38.359Z,23.13
2022-11-27T02:12:53.671Z,23.55
2022-11-27T02:14:16.835Z,21.13
2022-11-27T02:15:28.602Z,20.08
2022-11-27T02:16:37.168Z,22.67
2022-11-27T02:18:02.233Z,20.83
2022-11-27T02:19:19.723Z,20.73
2022-11-27T02:20:59.474Z,20.80
2022-11-27T02:22:37.929Z,20.02
2022-11-27T02:24:16.941Z,21.73
2022-11-27T02:25:57.154Z,22.90
2022-11-27T02:27:18.901Z,21.03
2022-11-27T02:28:44.225Z,21.35
2022-11-27T02:29:48.810Z,20.58
2022-11-27T02:30:57.929Z,22.38
2022-11-27T02:32:32.479Z,20.95
2022-11-27T02:33:39.614Z,22.33
2022-11-27T02:34:53.745Z,22.23
2022-11-27T02:36:01.651Z,24.45
2022-11-27T02:37:16.666Z,22.00
2022-11-27T02:38:28.432Z,24.15
2022-11-27T02:39:54.607Z,23.55
2022-11-27T02:41:30.736Z,24.08
2022-11-27T02:42:38.583Z,22.17
2022-11-27T02:43:45.899Z,24.55
2022-11-27T02:44:58.949Z,23.90
2022-11-27T02:46:03.198Z,23.35
2022-11-27T02:47:06.686Z,23.58
2022-11-27T02:48:10.700Z,23.98
2022-11-27T02:49:16.807Z,23.05
2022-11-27T02:50:22.715Z,22.17
2022-11-27T02:51:49.283Z,23.90
2022-11-27T02:52:54.340Z,22.63
2022-11-27T02:54:02.540Z,23.08
2022-11-27T02:55:08.913Z,25.02
2022-11-27T02:56:14.535Z,23.92
2022-11-27T02:57:17.996Z,23.65
2022-11-27T02:58:23.252Z,24.30
2022-11-27T02:59:28.833Z,22.95
2022-11-27T03:00:32.944Z,23.23
2022-11-27T03:01:40.145Z,24.10
2022-11-27T03:02:57.266Z,24.20
2022-11-27T03:04:01.908Z,23.40
2022-11-27T03:05:05.920Z,24.35
2022-11-27T03:06:14.397Z,23.05
2022-11-27T03:07:23.500Z,23.77
2022-11-27T03:08:51.825Z,24.60
2022-11-27T03:09:58.431Z,24.40
2022-11-27T03:11:07.498Z,24.60
2022-11-27T03:12:11.696Z,24.88
2022-11-27T03:13:14.592Z,23.98
2022-11-27T03:14:17.516Z,24.70
2022-11-27T03:15:21.237Z,24.88
2022-11-27T03:16:29.412Z,23.98
2022-11-27T03:17:48.190Z,25.95
2022-11-27T03:19:11.879Z,24.95
2022-11-27T03:20:23.696Z,23.10
2022-11-27T03:21:32.890Z,22.88
2022-11-27T03:22:35.726Z,24.02
2022-11-27T03:23:38.725Z,25.40
2022-11-27T03:24:41.801Z,26.75
2022-11-27T03:25:44.644Z,26.35
2022-11-27T03:26:47.650Z,25.20
2022-11-27T03:27:57.008Z,26.75
2022-11-27T03:29:01.105Z,26.50
2022-11-27T03:30:06.792Z,26.50
2022-11-27T03:31:10.062Z,26.52
2022-11-27T03:32:13.115Z,24.33
2022-11-27T03:33:15.821Z,27.30
2022-11-27T03:34:18.868Z,25.40
2022-11-27T03:35:24.753Z,26.30
2022-11-27T03:36:27.459Z,26.23
2022-11-27T03:37:30.242Z,25.15
2022-11-27T03:38:32.874Z,28.65
2022-11-27T03:39:35.724Z,26.50
2022-11-27T03:41:10.096Z,26.85
2022-11-27T03:42:28.062Z,26.48
2022-11-27T03:43:35.498Z,25.77
2022-11-27T03:44:53.570Z,28.33
2022-11-27T03:46:02.521Z,27.17
2022-11-27T03:47:07.196Z,29.70
2022-11-27T03:48:30.410Z,28.50
2022-11-27T03:49:50.070Z,26.38
2022-11-27T03:50:58.254Z,28.20
2022-11-27T03:52:22.304Z,27.15
2022-11-27T03:53:56.673Z,28.52
2022-11-27T03:55:09.724Z,25.40
2022-11-27T03:56:31.412Z,26.58
2022-11-27T03:58:40.968Z,28.27
2022-11-27T03:59:44.869Z,27.80
2022-11-27T04:00:48.660Z,27.70
2022-11-27T04:01:51.516Z,29.40
2022-11-27T04:02:54.233Z,28.17
2022-11-27T04:03:56.959Z,28.98
2022-11-27T04:04:59.616Z,27.75
2022-11-27T04:06:02.399Z,27.58
2022-11-27T04:07:05.268Z,29.80
2022-11-27T04:08:07.906Z,27.30
2022-11-27T04:09:10.699Z,29.73
2022-11-27T04:10:14.120Z,28.65
2022-11-27T04:11:16.815Z,31.35
2022-11-27T04:12:19.756Z,28.50
2022-11-27T04:13:22.431Z,31.42
2022-11-27T04:14:25.087Z,30.70
2022-11-27T04:15:27.968Z,28.63
2022-11-27T04:16:30.955Z,28.63
2022-11-27T04:17:33.766Z,29.50
2022-11-27T04:18:36.482Z,31.92
2022-11-27T04:19:39.283Z,30.88
2022-11-27T04:20:42.027Z,30.77
2022-11-27T04:21:44.701Z,31.65
2022-11-27T04:22:47.882Z,30.25
2022-11-27T04:23:50.741Z,32.70
2022-11-27T04:24:53.367Z,29.75
2022-11-27T04:25:57.868Z,31.63
2022-11-27T04:27:00.672Z,29.92
2022-11-27T04:28:03.534Z,31.05
2022-11-27T04:29:06.320Z,30.63
2022-11-27T04:30:09.723Z,31.60
2022-11-27T04:31:12.498Z,30.60
2022-11-27T04:32:15.656Z,33.20
2022-11-27T04:33:18.578Z,31.95
2022-11-27T04:34:21.237Z,32.35
2022-11-27T04:35:23.886Z,31.08
2022-11-27T04:36:28.908Z,33.92
2022-11-27T04:37:31.629Z,30.70
2022-11-27T04:38:34.417Z,32.30
2022-11-27T04:39:36.966Z,30.45
2022-11-27T04:40:41.481Z,31.42
2022-11-27T04:41:44.148Z,30.77
2022-11-27T04:42:46.824Z,32.05
2022-11-27T04:43:49.947Z,32.67
2022-11-27T04:44:52.591Z,33.72
2022-11-27T04:45:55.331Z,32.45
2022-11-27T04:46:58.065Z,33.83
2022-11-27T04:48:02.294Z,33.33
2022-11-27T04:49:05.083Z,34.17
2022-11-27T04:50:08.644Z,32.50
2022-11-27T04:51:12.560Z,31.77
2022-11-27T04:52:15.683Z,32.53
2022-11-27T04:53:18.827Z,31.63
2022-11-27T04:54:21.550Z,34.30
2022-11-27T04:55:24.347Z,33.28
2022-11-27T04:56:27.459Z,32.38
2022-11-27T04:57:30.155Z,33.40
2022-11-27T04:58:34.550Z,35.42
2022-11-27T04:59:38.080Z,33.40
2022-11-27T05:00:40.930Z,33.45
2022-11-27T05:01:43.716Z,35.85
2022-11-27T05:02:46.641Z,34.35
2022-11-27T05:03:49.642Z,34.28
2022-11-27T05:04:52.383Z,34.70
2022-11-27T05:05:58.652Z,34.10
2022-11-27T05:07:01.316Z,32.50
2022-11-27T05:08:04.953Z,34.33
2022-11-27T05:09:07.987Z,34.17
2022-11-27T05:10:11.661Z,32.90
2022-11-27T05:11:16.071Z,33.38
2022-11-27T05:12:18.804Z,32.03
2022-11-27T05:13:21.485Z,34.55
2022-11-27T05:14:29.275Z,33.33
2022-11-27T05:15:31.975Z,34.92
2022-11-27T05:16:34.745Z,34.35
2022-11-27T05:17:37.415Z,33.97
2022-11-27T05:18:40.096Z,33.50
2022-11-27T05:19:42.952Z,33.30
2022-11-27T05:20:45.916Z,35.83
2022-11-27T05:21:50.826Z,34.47
2022-11-27T05:22:53.743Z,33.75
2022-11-27T05:23:56.471Z,34.05
2022-11-27T05:24:59.233Z,32.25
2022-11-27T05:26:03.514Z,34.58
2022-11-27T05:27:06.368Z,34.72
2022-11-27T05:28:09.020Z,33.97
2022-11-27T05:29:12.352Z,31.95
2022-11-27T05:30:14.995Z,34.55
2022-11-27T05:31:17.900Z,33.17
2022-11-27T05:32:21.990Z,32.85
2022-11-27T05:33:24.729Z,33.60
2022-11-27T05:34:27.471Z,33.28
2022-11-27T05:35:30.113Z,32.30
2022-11-27T05:36:34.147Z,34.35
2022-11-27T05:37:36.782Z,33.80
2022-11-27T05:38:41.258Z,31.83
2022-11-27T05:39:44.091Z,36.83
2022-11-27T05:40:46.826Z,33.88
2022-11-27T05:41:49.479Z,33.80
2022-11-27T05:42:52.377Z,32.78
2022-11-27T05:43:55.175Z,33.15
2022-11-27T05:44:58.603Z,32.92
2022-11-27T05:46:08.480Z,33.83
2022-11-27T05:47:11.172Z,33.80
2022-11-27T05:48:14.306Z,33.92
2022-11-27T05:49:17.031Z,36.45
2022-11-27T05:50:21.295Z,34.22
2022-11-27T05:51:24.838Z,33.78
2022-11-27T05:52:27.659Z,31.95
2022-11-27T05:53:30.484Z,35.25
2022-11-27T05:54:33.266Z,36.95
2022-11-27T05:55:36.181Z,34.30
2022-11-27T05:56:38.816Z,33.13
2022-11-27T05:57:41.578Z,34.50
2022-11-27T05:58:45.998Z,35.08
2022-11-27T05:59:48.812Z,33.83
2022-11-27T06:00:51.643Z,33.88
2022-11-27T06:01:55.236Z,34.28
2022-11-27T06:02:57.988Z,33.90
2022-11-27T06:04:01.289Z,33.65
2022-11-27T06:05:04.264Z,31.55
2022-11-27T06:06:15.186Z,34.22
2022-11-27T06:07:17.867Z,32.97
2022-11-27T06:08:21.162Z,33.13
2022-11-27T06:09:23.883Z,32.72
2022-11-27T06:10:26.614Z,34.33
2022-11-27T06:11:29.267Z,33.58
2022-11-27T06:12:32.913Z,32.85
2022-11-27T06:13:36.979Z,31.40
2022-11-27T06:14:40.231Z,32.10
2022-11-27T06:15:43.750Z,33.30
2022-11-27T06:16:47.109Z,32.10
2022-11-27T06:17:50.557Z,32.15
2022-11-27T06:18:55.126Z,32.22
2022-11-27T06:19:57.980Z,31.88
2022-11-27T06:21:00.749Z,33.20
2022-11-27T06:22:03.530Z,32.72
2022-11-27T06:23:06.221Z,32.85
2022-11-27T06:24:11.127Z,32.85
2022-11-27T06:25:15.700Z,34.03
2022-11-27T06:26:23.434Z,33.85
2022-11-27T06:27:27.392Z,32.08
2022-11-27T06:28:31.026Z,33.60
2022-11-27T06:29:33.768Z,32.50
2022-11-27T06:30:38.124Z,33.05
2022-11-27T06:31:41.198Z,33.45
2022-11-27T06:32:44.032Z,32.55
2022-11-27T06:33:50.015Z,32.33
2022-11-27T06:34:52.765Z,31.50
2022-11-27T06:35:55.945Z,31.90
2022-11-27T06:36:58.658Z,31.55
2022-11-27T06:38:01.423Z,33.15
2022-11-27T06:39:06.194Z,31.65
2022-11-27T06:40:09.386Z,33.38
2022-11-27T06:41:17.636Z,33.05
2022-11-27T06:42:20.442Z,32.58
2022-11-27T06:43:23.055Z,31.95
2022-11-27T06:44:25.728Z,32.83
2022-11-27T06:45:29.335Z,32.05
2022-11-27T06:46:32.371Z,31.08
2022-11-27T06:47:35.047Z,32.13
2022-11-27T06:48:38.031Z,33.45
2022-11-27T06:49:40.911Z,31.20
2022-11-27T06:50:43.853Z,30.55
2022-11-27T06:51:49.163Z,31.50
2022-11-27T06:52:51.839Z,32.45
2022-11-27T06:53:54.760Z,30.08
2022-11-27T06:54:57.535Z,32.60
2022-11-27T06:56:09.237Z,31.27
2022-11-27T06:57:14.506Z,33.13
2022-11-27T06:58:17.658Z,31.00
2022-11-27T06:59:21.240Z,31.55
2022-11-27T07:00:23.959Z,31.05
2022-11-27T07:01:28.803Z,32.63
2022-11-27T07:02:31.683Z,30.50
2022-11-27T07:03:34.858Z,33.40
2022-11-27T07:04:37.790Z,31.45
2022-11-27T07:05:40.696Z,32.83
2022-11-27T07:06:43.952Z,32.80
2022-11-27T07:07:46.747Z,34.08
2022-11-27T07:08:49.678Z,31.08
2022-11-27T07:09:52.321Z,32.03
2022-11-27T07:10:55.118Z,29.45
2022-11-27T07:11:57.806Z,32.47
2022-11-27T07:13:00.759Z,33.63
2022-11-27T07:14:04.971Z,32.80
2022-11-27T07:15:08.618Z,33.15
2022-11-27T07:16:13.714Z,33.88
2022-11-27T07:17:16.512Z,31.90
2022-11-27T07:18:19.150Z,30.10
2022-11-27T07:19:21.760Z,31.55
2022-11-27T07:20:24.703Z,35.22
2022-11-27T07:21:28.242Z,33.30
2022-11-27T07:22:32.754Z,31.98
2022-11-27T07:23:35.983Z,32.67
2022-11-27T07:24:38.988Z,32.15
2022-11-27T07:25:41.870Z,32.85
2022-11-27T07:26:44.620Z,32.40
2022-11-27T07:27:47.297Z,30.50
2022-11-27T07:28:50.374Z,30.88
2022-11-27T07:29:53.574Z,32.50
2022-11-27T07:30:57.668Z,32.83
2022-11-27T07:32:00.553Z,33.63
2022-11-27T07:33:03.623Z,32.85
2022-11-27T07:34:11.684Z,33.13
2022-11-27T07:35:17.130Z,33.17
2022-11-27T07:36:26.561Z,32.55
2022-11-27T07:37:32.569Z,33.25
2022-11-27T07:38:35.341Z,33.40
2022-11-27T07:40:00.874Z,32.65
2022-11-27T07:41:04.989Z,32.60
2022-11-27T07:42:37.562Z,34.00
2022-11-27T07:43:32.480Z,32.50
2022-11-27T07:44:35.176Z,32.20
2022-11-27T07:45:37.892Z,32.97
2022-11-27T07:46:40.730Z,31.98
2022-11-27T07:47:43.424Z,32.17
2022-11-27T07:48:46.411Z,34.15
2022-11-27T07:49:49.092Z,33.28
2022-11-27T07:50:51.843Z,32.90
2022-11-27T07:51:54.872Z,35.05
2022-11-27T07:52:58.389Z,35.20
2022-11-27T07:54:01.462Z,32.85
2022-11-27T07:55:05.298Z,33.25
2022-11-27T07:56:10.603Z,32.33
2022-11-27T07:57:13.327Z,34.13
2022-11-27T07:58:16.163Z,33.03
2022-11-27T07:59:18.932Z,34.05
2022-11-27T08:00:22.518Z,31.95
2022-11-27T08:01:25.250Z,33.83
2022-11-27T08:02:28.047Z,34.25
2022-11-27T08:03:30.770Z,32.92
2022-11-27T08:04:33.535Z,34.45
2022-11-27T08:05:37.765Z,34.75
2022-11-27T08:06:40.435Z,33.42
2022-11-27T08:07:43.249Z,33.25
2022-11-27T08:08:46.269Z,33.90
2022-11-27T08:09:49.177Z,33.63
2022-11-27T08:10:52.206Z,33.85
2022-11-27T08:11:54.960Z,36.13
2022-11-27T08:12:58.311Z,33.40
2022-11-27T08:14:03.666Z,34.42
2022-11-27T08:15:07.382Z,33.70
2022-11-27T08:16:10.221Z,35.17
2022-11-27T08:17:13.323Z,33.53
2022-11-27T08:18:16.315Z,33.03
2022-11-27T08:19:19.240Z,33.80
2022-11-27T08:20:22.248Z,34.13
2022-11-27T08:21:25.311Z,33.33
2022-11-27T08:22:28.020Z,33.70
2022-11-27T08:23:30.833Z,32.78
2022-11-27T08:24:34.062Z,33.47
2022-11-27T08:25:38.237Z,33.05
2022-11-27T08:26:40.999Z,34.50
2022-11-27T08:27:43.794Z,33.75
2022-11-27T08:28:46.964Z,32.53
2022-11-27T08:29:49.708Z,33.10
2022-11-27T08:30:59.357Z,33.92
2022-11-27T08:32:02.164Z,31.40
2022-11-27T08:33:04.955Z,34.25
2022-11-27T08:34:08.285Z,33.20
2022-11-27T08:35:12.319Z,31.88
2022-11-27T08:36:18.327Z,33.05
2022-11-27T08:37:22.037Z,32.20
2022-11-27T08:38:25.675Z,32.58
2022-11-27T08:39:28.463Z,31.98
2022-11-27T08:40:31.181Z,34.85
2022-11-27T08:41:34.077Z,33.28
2022-11-27T08:42:36.812Z,32.38
2022-11-27T08:43:40.650Z,34.20
2022-11-27T08:44:43.532Z,32.10
2022-11-27T08:45:46.497Z,33.47
2022-11-27T08:46:49.419Z,34.33
2022-11-27T08:47:52.137Z,33.53
2022-11-27T08:48:54.860Z,33.05
2022-11-27T08:49:58.262Z,32.08
2022-11-27T08:51:05.989Z,35.25
2022-11-27T08:52:10.658Z,32.28
2022-11-27T08:53:13.696Z,33.08
2022-11-27T08:54:16.510Z,35.10
2022-11-27T08:55:21.020Z,31.55
2022-11-27T08:56:25.251Z,32.03
2022-11-27T08:57:28.052Z,33.40
2022-11-27T08:58:32.161Z,33.30
2022-11-27T08:59:34.843Z,33.80
2022-11-27T09:00:38.984Z,35.97
2022-11-27T09:01:42.159Z,32.58
2022-11-27T09:02:44.878Z,33.75
2022-11-27T09:03:48.337Z,34.50
2022-11-27T09:04:51.174Z,33.05
2022-11-27T09:05:54.912Z,31.67
2022-11-27T09:06:59.617Z,31.45
2022-11-27T09:08:05.493Z,29.63
2022-11-27T09:09:09.708Z,33.15
2022-11-27T09:10:12.496Z,33.40
2022-11-27T09:11:17.468Z,33.75
2022-11-27T09:12:20.898Z,32.35
2022-11-27T09:13:23.814Z,33.33
2022-11-27T09:14:26.526Z,35.40
2022-11-27T09:15:29.351Z,34.40
2022-11-27T09:16:32.668Z,34.97
2022-11-27T09:17:35.692Z,32.03
2022-11-27T09:18:38.594Z,33.75
2022-11-27T09:19:41.344Z,31.58
2022-11-27T09:20:44.059Z,32.78
2022-11-27T09:21:49.264Z,33.70
2022-11-27T09:22:52.560Z,31.55
2022-11-27T09:23:58.996Z,33.25
2022-11-27T09:25:02.187Z,30.92
2022-11-27T09:26:07.777Z,32.08
2022-11-27T09:27:10.856Z,32.08
2022-11-27T09:28:13.567Z,31.58
2022-11-27T09:29:16.604Z,32.08
2022-11-27T09:30:19.530Z,33.15
2022-11-27T09:31:22.919Z,32.42
2022-11-27T09:32:25.786Z,32.72
2022-11-27T09:33:30.899Z,32.35
2022-11-27T09:34:37.433Z,34.17
2022-11-27T09:35:40.872Z,32.58
2022-11-27T09:36:43.924Z,32.60
2022-11-27T09:37:46.781Z,33.78
2022-11-27T09:38:50.280Z,30.73
2022-11-27T09:39:53.101Z,31.73
2022-11-27T09:41:06.511Z,30.88
2022-11-27T09:42:15.779Z,30.83
2022-11-27T09:43:25.133Z,29.60
2022-11-27T09:44:52.137Z,33.92
2022-11-27T09:46:01.349Z,30.38
2022-11-27T09:47:19.989Z,31.52
2022-11-27T09:48:34.681Z,31.58
2022-11-27T09:49:54.860Z,30.00
2022-11-27T09:50:59.629Z,30.35
2022-11-27T09:52:06.731Z,31.30
2022-11-27T09:53:12.397Z,30.17
2022-11-27T09:54:39.017Z,34.35
2022-11-27T09:55:48.873Z,32.78
2022-11-27T09:56:53.601Z,30.80
2022-11-27T09:58:03.460Z,33.80
2022-11-27T09:59:14.776Z,34.03
2022-11-27T10:00:20.356Z,33.92
2022-11-27T10:01:41.920Z,33.90
2022-11-27T10:02:49.315Z,34.55
2022-11-27T10:03:52.767Z,33.00
2022-11-27T10:05:13.339Z,33.13
2022-11-27T10:06:31.643Z,31.60
2022-11-27T10:08:06.739Z,33.38
2022-11-27T10:09:31.755Z,31.38
2022-11-27T10:10:44.825Z,31.05
2022-11-27T10:12:21.387Z,31.33
2022-11-27T10:13:59.621Z,33.10
2022-11-27T10:15:05.263Z,31.25
2022-11-27T10:16:18.475Z,32.15
2022-11-27T10:17:29.891Z,31.73
2022-11-27T10:20:01.214Z,31.92
2022-11-27T10:21:12.705Z,31.27
2022-11-27T10:22:38.396Z,31.85
2022-11-27T10:23:50.479Z,30.95
2022-11-27T10:25:02.035Z,30.70
2022-11-27T10:26:18.607Z,31.20
2022-11-27T10:27:25.944Z,33.08
2022-11-27T10:28:51.462Z,32.67
2022-11-27T10:29:55.890Z,30.45
2022-11-27T10:31:12.687Z,33.75
2022-11-27T10:32:52.926Z,32.38
2022-11-27T10:33:50.569Z,31.02
2022-11-27T10:34:57.411Z,33.72
2022-11-27T10:36:01.344Z,30.75
2022-11-27T10:37:12.341Z,33.03
2022-11-27T10:38:19.969Z,31.52
2022-11-27T10:39:33.189Z,33.33
2022-11-27T10:41:09.822Z,33.38
2022-11-27T10:43:05.377Z,31.50
2022-11-27T10:44:32.221Z,29.88
2022-11-27T10:45:53.145Z,32.60
2022-11-27T10:47:02.103Z,30.88
2022-11-27T10:48:05.085Z,35.90
2022-11-27T10:49:09.458Z,30.17
2022-11-27T10:50:17.607Z,34.60
2022-11-27T10:51:41.154Z,32.90
2022-11-27T10:53:03.936Z,33.20
2022-11-27T10:54:09.967Z,31.63
2022-11-27T10:55:23.189Z,32.75
2022-11-27T10:56:37.088Z,31.77
2022-11-27T10:58:01.392Z,31.80
2022-11-27T10:59:15.422Z,31.63
2022-11-27T11:00:23.675Z,31.50
2022-11-27T11:01:29.441Z,32.78
2022-11-27T11:02:38.742Z,30.90
2022-11-27T11:03:41.678Z,32.72
2022-11-27T11:04:44.447Z,33.45
2022-11-27T11:06:20.232Z,32.97
2022-11-27T11:07:28.775Z,31.35
2022-11-27T11:08:33.030Z,33.22
2022-11-27T11:09:36.380Z,32.60
2022-11-27T11:10:52.852Z,33.65
2022-11-27T11:12:13.350Z,33.50
2022-11-27T11:13:27.261Z,32.30
2022-11-27T11:14:31.294Z,31.30
2022-11-27T11:15:34.097Z,32.78
2022-11-27T11:16:42.990Z,33.55
2022-11-27T11:18:51.992Z,29.15
2022-11-27T11:19:54.725Z,32.25
2022-11-27T11:20:59.627Z,30.40
2022-11-27T11:22:14.623Z,31.45
2022-11-27T11:23:35.709Z,31.40
2022-11-27T11:24:40.298Z,30.13
2022-11-27T11:25:52.733Z,31.63
2022-11-27T11:27:05.606Z,32.55
2022-11-27T11:28:16.995Z,33.70
2022-11-27T11:29:30.565Z,30.50
2022-11-27T11:30:34.757Z,30.48
2022-11-27T11:31:40.264Z,29.95
2022-11-27T11:32:45.202Z,30.02
2022-11-27T11:33:51.324Z,32.47
2022-11-27T11:35:44.419Z,32.35
2022-11-27T11:37:04.757Z,32.15
2022-11-27T11:38:15.948Z,31.67
2022-11-27T11:39:24.952Z,30.17
2022-11-27T11:40:33.433Z,29.52
2022-11-27T11:41:37.840Z,30.58
2022-11-27T11:43:26.214Z,29.33
2022-11-27T11:44:37.293Z,28.85
2022-11-27T11:45:47.027Z,29.58
2022-11-27T11:46:54.606Z,29.20
2022-11-27T11:48:02.214Z,28.63
2022-11-27T11:49:17.446Z,30.15
2022-11-27T11:50:33.295Z,31.05
2022-11-27T11:51:50.130Z,29.23
2022-11-27T11:53:11.485Z,33.38
2022-11-27T11:54:33.236Z,29.77
2022-11-27T11:55:40.524Z,29.83
2022-11-27T11:56:46.138Z,31.20
2022-11-27T11:57:57.075Z,29.90
2022-11-27T12:00:29.729Z,27.98
2022-11-27T12:02:11.072Z,31.42
2022-11-27T12:03:22.879Z,26.75
2022-11-27T12:04:44.742Z,27.67
2022-11-27T12:06:06.522Z,28.23
2022-11-27T12:07:09.682Z,28.23
2022-11-27T12:08:26.898Z,31.05
2022-11-27T12:10:02.450Z,31.00
2022-11-27T12:11:09.988Z,29.75
2022-11-27T12:12:22.187Z,32.67
2022-11-27T12:13:45.762Z,30.45
2022-11-27T12:14:58.057Z,30.45
2022-11-27T12:16:09.682Z,32.10
2022-11-27T12:17:12.641Z,29.00
2022-11-27T12:18:21.156Z,29.13
2022-11-27T12:19:32.276Z,29.60
2022-11-27T12:20:57.985Z,30.38
2022-11-27T12:22:15.961Z,30.02
2022-11-27T12:23:41.303Z,27.52
2022-11-27T12:24:49.577Z,28.33
2022-11-27T12:26:01.374Z,27.67
2022-11-27T12:27:12.029Z,29.15
2022-11-27T12:28:53.181Z,29.10
2022-11-27T12:30:07.131Z,29.33
2022-11-27T12:31:18.663Z,27.90
2022-11-27T12:32:45.936Z,27.88
2022-11-27T12:34:00.385Z,28.23
2022-11-27T12:35:24.579Z,27.38
2022-11-27T12:37:06.388Z,26.52
2022-11-27T12:38:28.740Z,27.95
2022-11-27T12:39:55.692Z,28.65
2022-11-27T12:41:23.573Z,26.45
2022-11-27T12:43:04.677Z,27.58
2022-11-27T12:44:18.398Z,26.35
2022-11-27T12:45:29.459Z,30.38
2022-11-27T12:46:49.726Z,29.08
2022-11-27T12:47:58.124Z,27.10
2022-11-27T12:49:11.480Z,29.25
2022-11-27T12:50:26.198Z,30.40
2022-11-27T12:51:34.589Z,29.55
2022-11-27T12:52:42.779Z,29.45
2022-11-27T12:53:59.573Z,33.03
2022-11-27T12:55:23.132Z,29.40
2022-11-27T12:56:37.503Z,28.88
2022-11-27T12:57:46.282Z,30.10
2022-11-27T12:58:55.301Z,29.25
2022-11-27T12:59:59.869Z,30.60
2022-11-27T13:01:12.753Z,30.38
2022-11-27T13:02:30.184Z,29.05
2022-11-27T13:03:44.405Z,28.13
2022-11-27T13:05:10.674Z,28.35
2022-11-27T13:06:16.911Z,26.63
2022-11-27T13:07:25.547Z,29.63
2022-11-27T13:09:00.032Z,30.10
2022-11-27T13:10:09.086Z,26.40
2022-11-27T13:11:14.104Z,28.48
2022-11-27T13:12:34.070Z,27.95
2022-11-27T13:13:39.532Z,28.35
2022-11-27T13:14:43.162Z,26.00
2022-11-27T13:15:59.281Z,26.45
2022-11-27T13:17:05.069Z,26.63
2022-11-27T13:18:30.234Z,27.00
2022-11-27T13:19:41.061Z,26.52
2022-11-27T13:21:48.120Z,27.08
2022-11-27T13:22:51.274Z,27.13
2022-11-27T13:23:54.516Z,25.77
2022-11-27T13:25:01.086Z,26.83
2022-11-27T13:26:06.716Z,28.05
2022-11-27T13:27:23.786Z,26.27
2022-11-27T13:28:46.064Z,25.85
2022-11-27T13:29:48.583Z,27.27
2022-11-27T13:30:53.133Z,26.08
2022-11-27T13:31:59.217Z,27.83
2022-11-27T13:33:02.788Z,26.40
2022-11-27T13:34:08.628Z,26.45
2022-11-27T13:35:39.927Z,28.52
2022-11-27T13:36:47.193Z,26.30
2022-11-27T13:38:15.918Z,26.15
2022-11-27T13:39:24.275Z,27.00
2022-11-27T13:40:33.316Z,26.17
2022-11-27T13:41:40.133Z,26.60
2022-11-27T13:42:45.493Z,26.90
2022-11-27T13:43:50.270Z,26.58
2022-11-27T13:45:01.794Z,27.75
2022-11-27T13:46:14.909Z,28.27
2022-11-27T13:47:19.261Z,26.48
2022-11-27T13:48:34.173Z,28.30
2022-11-27T13:49:38.087Z,27.38
2022-11-27T13:50:44.806Z,26.60
2022-11-27T13:51:47.504Z,26.85
2022-11-27T13:52:54.800Z,27.58
2022-11-27T13:54:22.288Z,26.95
2022-11-27T13:55:31.858Z,26.58
2022-11-27T13:56:34.705Z,26.15
2022-11-27T13:57:38.479Z,25.50
2022-11-27T13:58:42.654Z,26.70
2022-11-27T14:00:16.333Z,28.58
2022-11-27T14:01:23.966Z,26.20
2022-11-27T14:02:49.667Z,26.77
2022-11-27T14:03:52.718Z,26.38
2022-11-27T14:04:56.578Z,27.35
2022-11-27T14:05:59.625Z,27.63
2022-11-27T14:07:11.374Z,26.08
2022-11-27T14:08:31.600Z,28.40
2022-11-27T14:09:38.897Z,26.35
2022-11-27T14:10:56.684Z,26.90
2022-11-27T14:11:59.351Z,25.40
2022-11-27T14:13:04.414Z,25.75
2022-11-27T14:14:14.609Z,26.40
2022-11-27T14:15:17.226Z,25.80
2022-11-27T14:16:22.847Z,28.75
2022-11-27T14:17:39.911Z,26.50
2022-11-27T14:18:51.059Z,26.17
2022-11-27T14:20:05.183Z,27.70
2022-11-27T14:21:07.794Z,27.00
2022-11-27T14:22:40.815Z,29.75
2022-11-27T14:23:56.769Z,29.02
2022-11-27T14:24:59.439Z,27.55
2022-11-27T14:26:24.245Z,30.15
2022-11-27T14:27:33.581Z,30.02
2022-11-27T14:28:37.296Z,27.58
2022-11-27T14:29:40.099Z,27.45
2022-11-27T14:30:51.378Z,29.10
2022-11-27T14:31:59.391Z,26.75
2022-11-27T14:33:06.014Z,30.15
2022-11-27T14:34:29.143Z,30.38
2022-11-27T14:35:31.845Z,28.08
2022-11-27T14:36:35.528Z,29.52
2022-11-27T14:37:38.123Z,29.08
2022-11-27T14:38:40.837Z,30.83